Time;durP1;ratioP1;P1;durP2;ratioP2;P2;SDS_P1;SDS_P2;PMS_P1;PMS_P2;Temp;Humidity;BMP_temperature;BMP_pressure;BME280_temperature;BME280_humidity;BME280_pressure;Samples;Min_cycle;Max_cycle;Signal;HPM_P1;HPM_P2
2023/06/01 00:00:55;;;;;;;60.97;58.53;;;12.60;99.90;;;;;;6010540;23;20440;-62
2023/06/01 00:03:22;;;;;;;34.30;32.60;;;12.60;99.90;;;;;;6010454;23;20421;-62
2023/06/01 00:05:50;;;;;;;28.00;26.33;;;12.70;99.90;;;;;;6010778;23;20733;-62
2023/06/01 00:08:17;;;;;;;26.43;24.60;;;12.70;99.90;;;;;;6010622;23;20433;-62
2023/06/01 00:10:44;;;;;;;14.50;12.10;;;12.90;99.90;;;;;;6010672;23;20425;-62
2023/06/01 00:13:11;;;;;;;11.43;10.43;;;13.00;99.90;;;;;;6010352;23;20448;-62
2023/06/01 00:15:38;;;;;;;11.77;10.87;;;13.00;99.90;;;;;;6010590;23;20421;-62
2023/06/01 00:18:05;;;;;;;12.10;11.20;;;13.00;99.90;;;;;;6010190;23;20901;-62
2023/06/01 00:20:32;;;;;;;12.67;11.47;;;13.00;99.90;;;;;;6010628;23;20421;-62
2023/06/01 00:23:02;;;;;;;18.83;17.23;;;13.00;99.90;;;;;;6010508;23;20449;-62
2023/06/01 00:25:29;;;;;;;16.53;15.37;;;12.90;99.90;;;;;;6009928;23;21000;-62
2023/06/01 00:27:56;;;;;;;33.50;31.63;;;12.80;99.90;;;;;;6010417;23;20808;-62
2023/06/01 00:30:23;;;;;;;27.13;25.43;;;12.80;99.90;;;;;;6010487;23;20467;-62
2023/06/01 00:32:49;;;;;;;112.33;107.80;;;12.60;99.90;;;;;;6010314;23;20421;-62
2023/06/01 00:35:16;;;;;;;190.20;183.83;;;12.50;99.90;;;;;;6010368;23;20425;-62
2023/06/01 00:37:43;;;;;;;280.73;271.00;;;12.40;99.90;;;;;;6010338;23;20432;-62
2023/06/01 00:40:12;;;;;;;299.53;289.30;;;12.50;99.90;;;;;;6010199;23;20426;-62
2023/06/01 00:42:39;;;;;;;307.27;296.37;;;12.40;99.90;;;;;;6009958;23;20467;-62
2023/06/01 00:45:06;;;;;;;338.43;326.93;;;12.40;99.90;;;;;;6010378;23;20420;-62
2023/06/01 00:47:40;;;;;;;370.23;357.27;;;12.40;99.90;;;;;;6010593;23;20750;-62
2023/06/01 00:50:08;;;;;;;326.80;315.47;;;12.30;99.90;;;;;;6010216;23;20405;-62
2023/06/01 00:52:36;;;;;;;271.70;262.77;;;12.30;99.90;;;;;;6010244;23;20423;-62
2023/06/01 00:55:03;;;;;;;320.43;309.83;;;12.30;99.90;;;;;;6009914;23;20420;-62
2023/06/01 00:57:32;;;;;;;350.07;338.37;;;12.20;99.90;;;;;;6009960;23;20738;-62
2023/06/01 00:59:58;;;;;;;364.27;351.70;;;12.20;99.90;;;;;;6009904;23;20420;-62
2023/06/01 01:02:25;;;;;;;395.27;381.17;;;12.10;99.90;;;;;;6009719;23;20451;-62
2023/06/01 01:04:52;;;;;;;433.03;417.23;;;12.10;99.90;;;;;;6009775;23;20422;-62
2023/06/01 01:07:26;;;;;;;491.20;472.33;;;12.00;99.90;;;;;;6009686;23;20424;-62
2023/06/01 01:09:59;;;;;;;493.00;474.13;;;11.90;99.90;;;;;;6009767;23;20405;-62
2023/06/01 01:12:33;;;;;;;446.60;430.33;;;11.90;99.90;;;;;;6009864;23;20422;-62
2023/06/01 01:15:08;;;;;;;632.73;605.70;;;11.80;99.90;;;;;;6009989;23;20404;-62
2023/06/01 01:17:39;;;;;;;715.20;682.53;;;11.80;99.90;;;;;;6010009;23;20788;-62
2023/06/01 01:20:11;;;;;;;654.37;625.83;;;11.90;99.90;;;;;;6010070;23;20408;-62
2023/06/01 01:22:57;;;;;;;692.90;661.23;;;11.90;99.90;;;;;;6010093;23;20745;-62
2023/06/01 01:25:40;;;;;;;729.43;695.83;;;11.80;99.90;;;;;;6009887;23;20404;-62
2023/06/01 01:28:33;;;;;;;797.40;757.50;;;11.80;99.90;;;;;;6010115;23;20403;-62
2023/06/01 01:31:02;;;;;;;794.53;755.13;;;11.80;99.90;;;;;;6009637;23;20976;-62
2023/06/01 01:33:30;;;;;;;771.80;734.63;;;11.80;99.90;;;;;;6009442;23;20427;-62
2023/06/01 01:35:57;;;;;;;765.33;729.47;;;11.80;99.90;;;;;;6009307;23;20420;-62
2023/06/01 01:38:24;;;;;;;790.67;752.17;;;11.70;99.90;;;;;;6009953;23;20716;-62
2023/06/01 01:40:52;;;;;;;751.00;714.70;;;11.60;99.90;;;;;;6010084;23;20755;-62
2023/06/01 01:43:19;;;;;;;721.60;688.83;;;11.70;99.90;;;;;;6009854;23;20551;-62
2023/06/01 01:45:55;;;;;;;668.90;639.00;;;11.70;99.90;;;;;;6009613;23;20902;-62
2023/06/01 01:48:29;;;;;;;634.27;608.17;;;11.80;99.90;;;;;;6009834;23;20415;-62
2023/06/01 01:51:02;;;;;;;607.10;582.83;;;11.70;99.90;;;;;;6009865;23;20913;-62
2023/06/01 01:53:31;;;;;;;647.87;621.23;;;11.80;99.90;;;;;;6010573;23;20409;-62
2023/06/01 01:55:59;;;;;;;682.10;652.23;;;11.90;99.90;;;;;;6011410;23;20421;-62
2023/06/01 01:58:26;;;;;;;645.53;617.83;;;11.90;99.90;;;;;;6011390;23;20803;-62
2023/06/01 02:00:56;;;;;;;710.47;679.37;;;11.90;99.90;;;;;;6011566;23;20420;-62
2023/06/01 02:03:23;;;;;;;842.73;797.73;;;11.80;99.90;;;;;;6011493;23;20936;-62
2023/06/01 02:05:50;;;;;;;855.03;808.10;;;11.70;99.90;;;;;;6011642;23;20420;-62
2023/06/01 02:08:16;;;;;;;854.57;808.40;;;11.60;99.90;;;;;;6011404;23;20429;-62
2023/06/01 02:10:44;;;;;;;856.40;809.73;;;11.50;99.90;;;;;;6011563;23;20421;-62
2023/06/01 02:13:10;;;;;;;847.70;802.93;;;11.40;99.90;;;;;;6011150;23;20417;-62
2023/06/01 02:15:37;;;;;;;834.53;791.77;;;11.40;99.90;;;;;;6011084;23;20893;-62
2023/06/01 02:18:07;;;;;;;788.43;749.60;;;11.40;99.90;;;;;;6011596;23;20752;-62
2023/06/01 02:20:34;;;;;;;797.90;757.63;;;11.30;99.90;;;;;;6011428;23;20427;-62
2023/06/01 02:23:00;;;;;;;810.90;768.63;;;11.30;99.90;;;;;;6011160;23;20447;-62
2023/06/01 02:25:27;;;;;;;846.47;800.37;;;11.40;99.90;;;;;;6011472;23;20420;-62
2023/06/01 02:27:54;;;;;;;872.57;822.97;;;11.30;99.90;;;;;;6011010;23;20716;-62
2023/06/01 02:30:21;;;;;;;925.97;862.47;;;11.30;99.90;;;;;;6011222;23;20427;-62
2023/06/01 02:32:48;;;;;;;888.13;835.23;;;11.30;99.90;;;;;;6010843;23;20416;-62
2023/06/01 02:35:16;;;;;;;904.37;846.17;;;11.20;99.90;;;;;;6011117;23;20506;-62
2023/06/01 02:37:43;;;;;;;903.27;846.60;;;11.20;99.90;;;;;;6010766;23;20908;-62
2023/06/01 02:40:11;;;;;;;855.93;809.53;;;11.20;99.90;;;;;;6010888;23;20425;-62
2023/06/01 02:42:38;;;;;;;844.50;798.97;;;11.10;99.90;;;;;;6011042;23;20466;-62
2023/06/01 02:45:06;;;;;;;776.47;737.83;;;11.00;99.90;;;;;;6010899;23;20428;-62
2023/06/01 02:47:32;;;;;;;831.90;787.50;;;11.00;99.90;;;;;;6011137;23;20427;-62
2023/06/01 02:49:59;;;;;;;828.23;784.87;;;11.00;99.90;;;;;;6011285;23;20475;-62
2023/06/01 02:52:27;;;;;;;894.10;838.83;;;11.00;99.90;;;;;;6010620;23;20420;-62
2023/06/01 02:54:54;;;;;;;806.53;762.83;;;11.10;99.90;;;;;;6010751;23;20424;-62
2023/06/01 02:57:21;;;;;;;759.67;719.80;;;11.10;99.90;;;;;;6010580;23;20708;-62
2023/06/01 02:59:48;;;;;;;788.97;749.17;;;11.20;99.90;;;;;;6010779;23;20912;-62
2023/06/01 03:02:15;;;;;;;777.60;738.10;;;11.40;99.90;;;;;;6010859;23;20439;-62
2023/06/01 03:04:43;;;;;;;751.37;712.73;;;11.40;99.90;;;;;;6010942;23;20469;-62
2023/06/01 03:07:10;;;;;;;780.37;739.60;;;11.40;99.90;;;;;;6010574;23;20424;-63
2023/06/01 03:09:38;;;;;;;797.20;756.53;;;11.40;99.90;;;;;;6010993;23;20728;-63
2023/06/01 03:12:06;;;;;;;874.60;822.23;;;11.30;99.90;;;;;;6010069;23;20437;-63
2023/06/01 03:14:32;;;;;;;876.37;823.37;;;11.20;99.90;;;;;;6010504;23;20443;-63
2023/06/01 03:16:59;;;;;;;898.20;837.00;;;11.00;99.90;;;;;;6010794;23;20431;-63
2023/06/01 03:19:26;;;;;;;879.20;822.40;;;10.90;99.90;;;;;;6011055;23;20425;-63
2023/06/01 03:21:53;;;;;;;892.97;832.60;;;10.80;99.90;;;;;;6010615;23;20455;-63
2023/06/01 03:24:21;;;;;;;897.17;834.67;;;10.80;99.90;;;;;;6010818;23;20426;-63
2023/06/01 03:26:49;;;;;;;887.40;825.13;;;10.70;99.90;;;;;;6010824;23;20898;-63
2023/06/01 03:29:16;;;;;;;890.73;827.87;;;10.70;99.90;;;;;;6010602;23;20898;-63
2023/06/01 03:31:43;;;;;;;879.47;818.13;;;10.70;99.90;;;;;;6010278;23;20434;-63
2023/06/01 03:34:10;;;;;;;821.37;770.30;;;10.70;99.90;;;;;;6010546;23;20419;-63
2023/06/01 03:36:37;;;;;;;843.30;790.00;;;10.80;99.90;;;;;;6010597;23;20427;-63
2023/06/01 03:39:07;;;;;;;822.97;771.33;;;10.80;99.90;;;;;;6010619;23;20780;-63
2023/06/01 03:41:34;;;;;;;841.60;788.40;;;10.80;99.90;;;;;;6010669;23;20419;-63
2023/06/01 03:44:03;;;;;;;818.57;769.83;;;10.80;99.90;;;;;;6010650;23;20740;-63
2023/06/01 03:46:29;;;;;;;834.03;782.17;;;10.80;99.90;;;;;;6010609;23;20423;-63
2023/06/01 03:48:56;;;;;;;841.50;789.20;;;10.80;99.90;;;;;;6010684;23;20425;-63
2023/06/01 03:51:23;;;;;;;866.07;809.07;;;10.80;99.90;;;;;;6010493;23;20426;-63
2023/06/01 03:53:50;;;;;;;871.43;810.27;;;10.70;99.90;;;;;;6010573;23;20426;-63
2023/06/01 03:56:17;;;;;;;859.17;801.80;;;10.80;99.90;;;;;;6010733;23;20430;-63
2023/06/01 03:58:44;;;;;;;836.33;783.07;;;10.80;99.90;;;;;;6010462;23;20427;-63
2023/06/01 04:01:16;;;;;;;829.50;777.43;;;10.80;99.90;;;;;;6010711;23;20424;-63
2023/06/01 04:03:43;;;;;;;821.20;770.93;;;10.90;99.90;;;;;;6010464;23;20929;-63
2023/06/01 04:06:13;;;;;;;839.90;786.37;;;10.90;99.90;;;;;;6010611;23;20431;-63
2023/06/01 04:08:47;;;;;;;838.00;783.10;;;10.90;99.90;;;;;;6010494;23;20825;-63
2023/06/01 04:11:14;;;;;;;836.77;783.30;;;10.90;99.90;;;;;;6010388;23;20403;-63
2023/06/01 04:13:41;;;;;;;815.87;765.53;;;11.00;99.90;;;;;;6010060;23;20893;-63
2023/06/01 04:16:08;;;;;;;809.53;761.07;;;11.00;99.90;;;;;;6010014;23;20901;-62
2023/06/01 04:18:36;;;;;;;814.63;765.07;;;11.10;99.90;;;;;;6010442;23;20719;-63
2023/06/01 04:21:03;;;;;;;801.43;752.93;;;11.10;99.90;;;;;;6010057;23;20420;-63
2023/06/01 04:23:30;;;;;;;818.63;769.63;;;11.20;99.90;;;;;;6010318;23;20444;-63
2023/06/01 04:25:59;;;;;;;776.67;733.47;;;11.20;99.90;;;;;;6010343;23;20424;-63
2023/06/01 04:28:26;;;;;;;687.50;652.93;;;11.30;99.90;;;;;;6010310;23;20427;-62
2023/06/01 04:30:54;;;;;;;595.27;569.83;;;11.30;99.90;;;;;;6009922;23;20503;-63
2023/06/01 04:33:22;;;;;;;547.77;524.20;;;11.40;99.90;;;;;;6009938;23;20443;-63
2023/06/01 04:35:52;;;;;;;682.60;649.27;;;11.50;99.90;;;;;;6009638;23;20476;-63
2023/06/01 04:38:19;;;;;;;698.37;664.10;;;11.50;99.90;;;;;;6009951;23;20630;-62
2023/06/01 04:40:46;;;;;;;759.90;720.53;;;11.60;99.90;;;;;;6010387;23;20420;-63
2023/06/01 04:43:18;;;;;;;642.20;614.33;;;11.60;99.90;;;;;;6009785;23;20447;-63
2023/06/01 04:45:46;;;;;;;566.37;543.07;;;11.70;99.90;;;;;;6010069;23;20716;-63
2023/06/01 04:48:16;;;;;;;610.00;581.73;;;11.80;99.90;;;;;;6009899;23;20420;-62
2023/06/01 04:50:44;;;;;;;506.90;485.93;;;11.90;99.90;;;;;;6010332;23;20405;-62
2023/06/01 04:53:12;;;;;;;456.87;437.80;;;11.90;99.90;;;;;;6010177;23;20423;-62
2023/06/01 04:55:39;;;;;;;401.60;384.70;;;12.00;99.90;;;;;;6009948;23;20421;-62
2023/06/01 04:58:06;;;;;;;343.33;328.77;;;12.10;99.90;;;;;;6010013;23;20419;-63
2023/06/01 05:00:33;;;;;;;290.63;277.73;;;12.00;99.90;;;;;;6010036;23;20421;-62
2023/06/01 05:03:00;;;;;;;265.70;253.83;;;12.00;99.90;;;;;;6009521;23;20448;-62
2023/06/01 05:05:27;;;;;;;287.33;274.57;;;12.10;99.90;;;;;;6009679;23;20448;-62
2023/06/01 05:07:54;;;;;;;250.33;239.10;;;12.20;99.90;;;;;;6009817;23;20482;-63
2023/06/01 05:10:22;;;;;;;232.23;220.60;;;12.20;99.90;;;;;;6009650;23;20420;-63
2023/06/01 05:12:49;;;;;;;219.23;208.37;;;12.30;99.90;;;;;;6009355;23;20416;-62
2023/06/01 05:15:16;;;;;;;146.70;138.80;;;12.30;99.90;;;;;;6009865;23;20902;-62
2023/06/01 05:17:43;;;;;;;158.40;147.77;;;12.30;99.90;;;;;;6010027;23;20421;-62
2023/06/01 05:20:11;;;;;;;137.57;128.40;;;12.30;99.90;;;;;;6010167;23;20421;-62
2023/06/01 05:22:38;;;;;;;146.67;136.80;;;12.30;99.90;;;;;;6009956;23;20447;-62
2023/06/01 05:25:05;;;;;;;170.00;158.30;;;12.30;99.90;;;;;;6009853;23;20910;-62
2023/06/01 05:27:34;;;;;;;148.70;137.20;;;12.30;99.90;;;;;;6009670;23;20432;-62
2023/06/01 05:30:01;;;;;;;148.13;137.80;;;12.30;99.90;;;;;;6011520;23;20452;-62
2023/06/01 05:32:28;;;;;;;96.03;88.17;;;12.30;99.90;;;;;;6011380;23;20929;-62
2023/06/01 05:34:55;;;;;;;134.73;124.73;;;12.30;99.90;;;;;;6011621;23;20422;-62
2023/06/01 05:37:22;;;;;;;68.93;63.13;;;12.40;99.90;;;;;;6011376;23;20473;-61
2023/06/01 05:39:48;;;;;;;92.53;84.17;;;12.40;99.90;;;;;;6011350;23;20424;-62
2023/06/01 05:42:15;;;;;;;106.50;97.23;;;12.40;99.90;;;;;;6011485;23;20421;-62
2023/06/01 05:44:45;;;;;;;129.43;119.17;;;12.50;99.90;;;;;;6010718;23;20416;-62
2023/06/01 05:47:12;;;;;;;90.87;79.83;;;12.50;99.90;;;;;;6011465;23;20417;-62
2023/06/01 05:49:39;;;;;;;102.70;92.53;;;12.60;99.90;;;;;;6011524;23;20417;-62
2023/06/01 05:52:06;;;;;;;80.90;72.43;;;12.60;99.90;;;;;;6011033;23;20469;-61
2023/06/01 05:54:33;;;;;;;72.23;58.63;;;12.60;99.90;;;;;;6011293;23;20791;-61
2023/06/01 05:57:00;;;;;;;72.50;56.43;;;12.60;99.90;;;;;;6011730;23;20637;-61
2023/06/01 05:59:27;;;;;;;77.30;54.43;;;12.60;99.90;;;;;;6011222;23;20503;-62
2023/06/01 06:01:55;;;;;;;73.77;61.57;;;12.60;99.90;;;;;;6010655;23;20993;-61
2023/06/01 06:04:22;;;;;;;64.97;46.17;;;12.70;99.90;;;;;;6011489;23;20514;-62
2023/06/01 06:06:48;;;;;;;60.43;43.20;;;12.70;99.90;;;;;;6011274;23;20418;-62
2023/06/01 06:09:15;;;;;;;65.57;45.93;;;12.80;99.90;;;;;;6010689;23;20418;-62
2023/06/01 06:11:43;;;;;;;55.63;38.23;;;12.90;99.90;;;;;;6011143;23;20429;-62
2023/06/01 06:14:11;;;;;;;71.50;47.57;;;13.00;99.90;;;;;;6011250;23;20939;-62
2023/06/01 06:16:39;;;;;;;63.20;34.80;;;13.10;99.90;;;;;;6019781;23;20435;-62
2023/06/01 06:19:07;;;;;;;69.63;33.60;;;13.00;99.90;;;;;;6010848;23;20428;-62
2023/06/01 06:21:35;;;;;;;47.97;31.33;;;12.80;99.90;;;;;;6010967;23;20588;-61
2023/06/01 06:24:02;;;;;;;80.67;49.00;;;12.70;99.90;;;;;;6011200;23;20474;-61
2023/06/01 06:26:28;;;;;;;73.90;53.23;;;12.60;99.90;;;;;;6010961;23;20431;-61
2023/06/01 06:28:55;;;;;;;67.93;39.87;;;12.70;99.90;;;;;;6011710;23;20425;-61
2023/06/01 06:31:23;;;;;;;90.33;49.90;;;12.60;99.90;;;;;;6009660;23;20486;-62
2023/06/01 06:33:51;;;;;;;65.33;37.77;;;12.80;99.90;;;;;;6010872;23;20424;-62
2023/06/01 06:36:19;;;;;;;82.03;47.83;;;12.80;99.90;;;;;;6010328;23;20484;-62
2023/06/01 06:38:46;;;;;;;62.47;33.10;;;12.80;99.90;;;;;;6010486;23;20423;-61
2023/06/01 06:41:13;;;;;;;65.60;32.60;;;12.80;99.90;;;;;;6011026;23;20975;-62
2023/06/01 06:43:40;;;;;;;67.57;36.50;;;12.80;99.90;;;;;;6010321;23;20967;-61
2023/06/01 06:46:07;;;;;;;53.97;29.57;;;12.70;99.90;;;;;;6010680;23;20458;-62
2023/06/01 06:48:34;;;;;;;73.60;40.17;;;12.90;99.90;;;;;;6010501;23;20883;-62
2023/06/01 06:51:02;;;;;;;83.43;47.40;;;13.00;99.90;;;;;;6011093;23;20835;-62
2023/06/01 06:53:31;;;;;;;84.50;45.83;;;12.90;99.90;;;;;;6010856;23;20417;-61
2023/06/01 06:55:57;;;;;;;62.50;33.63;;;13.00;99.90;;;;;;6010950;23;20425;-62
2023/06/01 06:58:24;;;;;;;65.43;35.10;;;12.80;99.90;;;;;;6010747;23;20421;-65
2023/06/01 07:00:51;;;;;;;76.77;42.47;;;12.80;99.90;;;;;;6010746;23;20798;-61
2023/06/01 07:03:18;;;;;;;69.70;40.00;;;12.90;99.90;;;;;;6010499;23;20452;-61
2023/06/01 07:05:45;;;;;;;70.00;39.43;;;13.00;99.90;;;;;;6010862;23;20718;-62
2023/06/01 07:08:12;;;;;;;70.63;39.43;;;13.10;99.90;;;;;;6010673;23;20429;-61
2023/06/01 07:10:40;;;;;;;61.87;33.63;;;13.10;99.90;;;;;;6010769;23;20428;-61
2023/06/01 07:13:07;;;;;;;79.73;41.13;;;13.20;99.90;;;;;;6010508;23;20759;-61
2023/06/01 07:15:34;;;;;;;63.67;33.23;;;13.30;99.90;;;;;;6010852;23;20421;-62
2023/06/01 07:18:02;;;;;;;59.73;36.53;;;13.50;99.90;;;;;;6009762;23;20430;-62
2023/06/01 07:20:28;;;;;;;66.43;39.80;;;14.30;99.90;;;;;;6010827;23;20426;-62
2023/06/01 07:22:56;;;;;;;63.13;34.53;;;14.60;99.90;;;;;;6010212;23;20426;-62
2023/06/01 07:25:23;;;;;;;63.43;41.50;;;14.90;99.90;;;;;;6010328;23;20511;-62
2023/06/01 07:27:52;;;;;;;43.07;25.07;;;15.50;99.90;;;;;;6010818;23;20501;-62
2023/06/01 07:30:19;;;;;;;54.93;32.20;;;16.10;98.40;;;;;;6010437;23;20450;-62
2023/06/01 07:32:45;;;;;;;53.27;34.80;;;16.10;95.10;;;;;;6010550;23;20414;-62
2023/06/01 07:35:13;;;;;;;52.40;34.67;;;16.70;95.20;;;;;;6010603;23;20414;-62
2023/06/01 07:37:41;;;;;;;49.60;33.60;;;16.50;93.70;;;;;;6010346;23;20418;-62
2023/06/01 07:40:09;;;;;;;53.30;33.80;;;16.20;93.50;;;;;;6010751;23;20474;-62
2023/06/01 07:42:36;;;;;;;46.93;30.60;;;15.90;93.90;;;;;;6010000;23;20443;-62
2023/06/01 07:45:05;;;;;;;52.10;34.67;;;15.30;93.90;;;;;;6010156;23;20442;-62
2023/06/01 07:47:32;;;;;;;60.83;38.13;;;15.30;94.10;;;;;;6009932;23;20418;-62
2023/06/01 07:49:59;;;;;;;58.80;37.70;;;15.50;94.70;;;;;;6010985;23;20426;-62
2023/06/01 07:52:26;;;;;;;50.30;32.27;;;15.50;95.10;;;;;;6011188;23;20425;-62
2023/06/01 07:54:53;;;;;;;41.60;28.27;;;15.60;93.30;;;;;;6011372;23;20449;-68
2023/06/01 07:57:20;;;;;;;53.33;31.87;;;15.50;93.20;;;;;;6010631;23;20430;-68
2023/06/01 07:59:47;;;;;;;54.60;33.50;;;15.50;93.20;;;;;;6010948;23;20419;-68
2023/06/01 08:02:15;;;;;;;51.57;33.20;;;16.00;92.30;;;;;;6010674;23;20441;-68
2023/06/01 08:04:44;;;;;;;51.83;35.80;;;16.00;92.20;;;;;;6010421;23;20450;-68
2023/06/01 08:07:12;;;;;;;49.20;33.73;;;16.10;92.40;;;;;;6010914;23;20426;-68
2023/06/01 08:09:39;;;;;;;48.43;32.20;;;16.40;92.10;;;;;;6010857;23;20518;-68
2023/06/01 08:12:06;;;;;;;53.57;34.97;;;16.20;92.50;;;;;;6010795;23;20422;-68
2023/06/01 08:14:33;;;;;;;51.83;31.50;;;16.20;91.70;;;;;;6010847;23;20449;-69
2023/06/01 08:17:02;;;;;;;54.67;33.47;;;15.90;90.50;;;;;;6010674;23;20426;-68
2023/06/01 08:19:31;;;;;;;45.20;31.10;;;16.20;90.90;;;;;;6010875;23;20418;-69
2023/06/01 08:21:57;;;;;;;46.23;29.60;;;16.10;91.80;;;;;;6010655;23;20441;-68
2023/06/01 08:24:24;;;;;;;51.37;34.90;;;16.20;90.10;;;;;;6010133;23;20445;-68
2023/06/01 08:26:51;;;;;;;50.13;34.60;;;16.30;87.60;;;;;;6010611;23;20745;-68
2023/06/01 08:29:18;;;;;;;46.53;30.10;;;16.50;88.20;;;;;;6010340;23;20470;-68
2023/06/01 08:31:45;;;;;;;50.87;32.60;;;16.50;82.90;;;;;;6010183;23;20483;-69
2023/06/01 08:34:12;;;;;;;45.83;30.97;;;17.10;83.40;;;;;;6010536;23;20423;-68
2023/06/01 08:36:40;;;;;;;47.57;31.70;;;17.20;83.50;;;;;;6010785;23;20425;-69
2023/06/01 08:39:22;;;;;;;42.43;28.20;;;17.50;82.50;;;;;;6010550;23;20422;-69
2023/06/01 08:42:05;;;;;;;44.10;28.17;;;17.00;76.00;;;;;;6010160;23;20403;-69
2023/06/01 08:44:37;;;;;;;47.13;31.77;;;17.20;77.40;;;;;;6010548;23;20435;-68
2023/06/01 08:47:05;;;;;;;49.73;35.53;;;17.10;80.40;;;;;;6010129;23;20459;-68
2023/06/01 08:49:33;;;;;;;43.03;28.53;;;17.50;77.70;;;;;;6010506;23;20419;-68
2023/06/01 08:52:05;;;;;;;46.87;31.77;;;17.60;71.50;;;;;;6010444;23;20426;-68
2023/06/01 08:54:33;;;;;;;50.83;32.23;;;17.70;72.40;;;;;;6010452;23;20716;-69
2023/06/01 08:57:02;;;;;;;45.30;24.70;;;17.90;68.20;;;;;;6010476;23;20497;-68
2023/06/01 08:59:30;;;;;;;46.37;31.90;;;17.80;68.10;;;;;;6010574;23;20457;-69
2023/06/01 09:01:58;;;;;;;46.33;30.43;;;17.80;69.30;;;;;;6010281;23;20418;-68
2023/06/01 09:04:26;;;;;;;51.50;29.83;;;18.10;69.80;;;;;;6012069;23;20521;-69
2023/06/01 09:06:53;;;;;;;40.83;28.60;;;18.20;67.00;;;;;;6012520;23;20422;-68
2023/06/01 09:09:21;;;;;;;54.30;29.23;;;18.30;67.00;;;;;;6012586;23;20815;-68
2023/06/01 09:11:48;;;;;;;43.33;27.07;;;18.40;63.50;;;;;;6021269;23;20430;-68
2023/06/01 09:14:22;;;;;;;38.63;23.00;;;18.70;60.70;;;;;;6012434;23;20501;-69
2023/06/01 09:16:50;;;;;;;44.07;26.67;;;18.50;64.60;;;;;;6012288;23;20478;-69
2023/06/01 09:19:18;;;;;;;34.93;20.00;;;18.40;60.40;;;;;;6012477;23;20418;-68
2023/06/01 09:21:57;;;;;;;32.37;20.77;;;18.30;60.30;;;;;;6012401;23;20418;-69
2023/06/01 09:24:26;;;;;;;41.27;25.83;;;18.40;56.90;;;;;;6012243;23;20748;-69
2023/06/01 09:27:00;;;;;;;35.30;22.90;;;18.50;57.60;;;;;;6011863;23;20465;-68
2023/06/01 09:29:27;;;;;;;39.07;24.67;;;18.60;59.00;;;;;;6011977;23;20463;-69
2023/06/01 09:31:54;;;;;;;32.33;19.83;;;19.20;56.30;;;;;;6011851;23;20432;-69
2023/06/01 09:34:22;;;;;;;26.80;16.10;;;19.40;52.70;;;;;;6012368;23;20419;-69
2023/06/01 09:36:51;;;;;;;31.27;22.80;;;19.40;52.70;;;;;;6011949;23;21002;-68
2023/06/01 09:39:19;;;;;;;32.60;23.77;;;19.40;52.70;;;;;;6011777;23;20425;-69
2023/06/01 09:41:52;;;;;;;32.47;21.30;;;20.50;53.70;;;;;;6012085;23;20419;-69
2023/06/01 09:44:27;;;;;;;39.30;22.80;;;20.20;50.70;;;;;;6012194;23;20426;-69
2023/06/01 09:46:56;;;;;;;37.23;20.97;;;20.10;50.40;;;;;;6012197;23;20422;-69
2023/06/01 09:49:25;;;;;;;31.70;20.13;;;20.40;50.90;;;;;;6021398;23;20414;-69
2023/06/01 09:51:54;;;;;;;26.40;18.27;;;20.50;45.00;;;;;;6012085;23;20501;-69
2023/06/01 09:54:28;;;;;;;28.23;18.43;;;20.20;46.90;;;;;;6012078;23;20425;-69
2023/06/01 09:56:57;;;;;;;30.30;18.13;;;20.50;42.80;;;;;;6011967;23;20418;-69
2023/06/01 09:59:25;;;;;;;29.30;17.30;;;20.80;43.80;;;;;;6011968;23;20425;-69
2023/06/01 10:01:53;;;;;;;21.70;11.50;;;20.20;43.80;;;;;;6012085;23;20789;-69
2023/06/01 10:04:24;;;;;;;26.80;17.37;;;19.60;42.90;;;;;;6012005;23;20439;-69
2023/06/01 10:06:53;;;;;;;30.83;17.53;;;20.10;43.60;;;;;;6012494;23;20482;-68
2023/06/01 10:09:22;;;;;;;28.43;17.10;;;20.70;42.50;;;;;;6011670;23;20419;-68
2023/06/01 10:11:50;;;;;;;25.13;17.13;;;21.00;41.50;;;;;;6011355;23;20929;-69
2023/06/01 10:14:19;;;;;;;24.73;16.70;;;21.20;36.40;;;;;;6011935;23;20419;-68
2023/06/01 10:16:45;;;;;;;25.47;16.10;;;20.90;42.90;;;;;;6011305;23;20426;-69
2023/06/01 10:19:13;;;;;;;26.13;16.53;;;20.50;44.30;;;;;;6011936;23;20423;-68
2023/06/01 10:21:42;;;;;;;22.30;14.80;;;21.00;48.70;;;;;;6011721;23;20450;-68
2023/06/01 10:24:09;;;;;;;27.63;16.10;;;21.20;40.40;;;;;;6011790;23;20449;-68
2023/06/01 10:26:42;;;;;;;21.00;13.57;;;20.90;39.50;;;;;;6011361;23;20425;-68
2023/06/01 10:29:10;;;;;;;24.17;11.67;;;21.20;36.40;;;;;;6011473;23;20403;-69
2023/06/01 10:31:40;;;;;;;26.10;14.90;;;21.10;36.30;;;;;;6010924;23;20803;-66
2023/06/01 10:34:09;;;;;;;24.10;14.33;;;21.10;34.50;;;;;;6011364;23;20410;-66
2023/06/01 10:37:13;;;;;;;26.80;14.60;;;21.50;36.70;;;;;;6011661;23;20450;-66
2023/06/01 10:39:41;;;;;;;31.43;15.87;;;21.60;38.80;;;;;;6020445;23;20533;-67
2023/06/01 10:42:39;;;;;;;24.87;13.90;;;21.10;36.30;;;;;;6020867;23;20505;-66
2023/06/01 10:45:08;;;;;;;25.38;15.82;;;21.30;38.70;;;;;;6010660;23;20425;-66
2023/06/01 10:47:48;;;;;;;27.40;15.87;;;21.60;32.30;;;;;;6011471;23;20174;-66
2023/06/01 10:50:19;;;;;;;25.63;15.10;;;22.00;37.80;;;;;;6011047;23;20462;-66
2023/06/01 10:52:46;;;;;;;24.25;15.50;;;22.30;35.50;;;;;;6010583;23;20425;-66
2023/06/01 10:55:28;;;;;;;21.53;12.07;;;22.30;26.00;;;;;;6011738;23;20230;-67
2023/06/01 10:58:21;;;;;;;24.63;13.60;;;22.30;28.70;;;;;;6006993;23;20746;-66
2023/06/01 11:00:48;;;;;;;16.53;12.13;;;22.10;28.60;;;;;;6011571;23;20738;-67
2023/06/01 11:03:17;;;;;;;18.60;11.57;;;22.40;29.30;;;;;;6010923;23;20414;-66
2023/06/01 11:05:47;;;;;;;22.63;10.43;;;22.30;27.30;;;;;;6010875;23;20438;-66
2023/06/01 11:08:53;;;;;;;17.70;11.10;;;22.80;27.70;;;;;;6011038;23;20459;-66
2023/06/01 11:11:21;;;;;;;26.93;12.57;;;22.60;28.90;;;;;;6011319;23;20477;-66
2023/06/01 11:14:13;;;;;;;23.07;10.70;;;22.40;28.70;;;;;;6011157;23;20418;-66
2023/06/01 11:16:40;;;;;;;21.57;13.50;;;22.50;26.50;;;;;;6011219;23;20415;-66
2023/06/01 11:19:10;;;;;;;18.67;12.17;;;22.30;29.00;;;;;;6010943;23;20453;-69
2023/06/01 11:21:43;;;;;;;21.87;12.50;;;22.50;25.60;;;;;;6010834;23;20415;-69
2023/06/01 11:24:11;;;;;;;15.07;9.57;;;22.50;28.80;;;;;;6011147;23;20398;-69
2023/06/01 11:26:43;;;;;;;18.03;10.87;;;22.40;20.30;;;;;;6011051;23;20418;-70
2023/06/01 11:29:13;;;;;;;17.83;11.10;;;22.50;21.60;;;;;;6011261;23;20414;-69
2023/06/01 11:31:43;;;;;;;16.13;10.03;;;23.20;23.00;;;;;;6010566;23;20427;-69
2023/06/01 11:34:12;;;;;;;19.63;11.33;;;23.10;19.30;;;;;;6011167;23;20562;-69
2023/06/01 11:36:44;;;;;;;13.27;7.50;;;23.30;21.40;;;;;;6010879;23;20425;-69
2023/06/01 11:39:24;;;;;;;20.33;9.80;;;22.70;17.80;;;;;;6010743;23;20407;-68
2023/06/01 11:41:53;;;;;;;18.40;9.03;;;22.90;18.60;;;;;;6010444;23;20859;-68
2023/06/01 11:44:20;;;;;;;21.93;10.00;;;22.90;17.60;;;;;;6010853;23;20429;-69
2023/06/01 11:46:54;;;;;;;18.27;11.40;;;23.00;18.80;;;;;;6010583;23;20425;-69
2023/06/01 11:49:23;;;;;;;21.90;9.50;;;23.90;18.10;;;;;;6010684;23;20425;-69
2023/06/01 11:51:51;;;;;;;17.83;8.87;;;23.70;20.40;;;;;;6010490;23;20707;-69
2023/06/01 11:54:23;;;;;;;24.30;10.53;;;24.00;20.00;;;;;;6011134;23;20423;-69
2023/06/01 11:56:51;;;;;;;22.87;10.50;;;23.20;18.80;;;;;;6010762;23;20403;-69
2023/06/01 11:59:18;;;;;;;21.07;10.70;;;23.70;22.40;;;;;;6011109;23;20418;-68
2023/06/01 12:01:47;;;;;;;23.53;10.03;;;23.50;18.30;;;;;;6010668;23;20418;-67
2023/06/01 12:04:14;;;;;;;17.60;7.97;;;23.80;22.50;;;;;;6010954;23;20397;-67
2023/06/01 12:06:43;;;;;;;22.47;10.90;;;23.60;19.90;;;;;;6010134;23;20959;-67
2023/06/01 12:09:15;;;;;;;15.10;9.83;;;23.50;14.70;;;;;;6010948;23;20418;-67
2023/06/01 12:11:44;;;;;;;15.37;7.70;;;23.80;22.40;;;;;;6011109;23;20389;-67
2023/06/01 12:14:12;;;;;;;20.63;8.33;;;23.50;17.90;;;;;;6019902;23;20422;-67
2023/06/01 12:16:56;;;;;;;18.70;9.50;;;23.30;16.80;;;;;;6010659;23;20426;-67
2023/06/01 12:19:23;;;;;;;13.83;8.17;;;23.30;19.70;;;;;;6010430;23;20899;-67
2023/06/01 12:21:54;;;;;;;14.13;8.63;;;23.50;24.10;;;;;;6010278;23;20428;-67
2023/06/01 12:24:28;;;;;;;29.30;9.23;;;24.10;20.00;;;;;;6010726;23;20407;-67
2023/06/01 12:26:55;;;;;;;12.90;9.20;;;24.00;17.40;;;;;;6010454;23;20395;-67
2023/06/01 12:29:38;;;;;;;17.57;8.73;;;23.80;15.70;;;;;;6010701;23;20421;-68